createdAt,value
2018-05-31T00:00:13.078Z,21.48
2018-05-31T00:01:13.070Z,21.5
2018-05-31T00:02:13.507Z,21.45
2018-05-31T00:03:13.364Z,21.48
2018-05-31T00:04:13.090Z,21.43
2018-05-31T00:05:13.430Z,21.46
2018-05-31T00:06:13.171Z,21.32
2018-05-31T00:07:13.098Z,21.43
2018-05-31T00:08:13.388Z,21.39
2018-05-31T00:09:13.363Z,21.35
2018-05-31T00:10:13.470Z,21.37
2018-05-31T00:11:13.434Z,21.4
2018-05-31T00:12:13.102Z,21.37
2018-05-31T00:13:13.364Z,21.37
2018-05-31T00:14:13.112Z,21.37
2018-05-31T00:15:13.261Z,21.37
2018-05-31T00:16:12.887Z,21.42
2018-05-31T00:17:13.389Z,21.27
2018-05-31T00:18:13.113Z,21.3
2018-05-31T00:19:13.388Z,21.25
2018-05-31T00:20:13.898Z,21.21
2018-05-31T00:21:13.439Z,21.2
2018-05-31T00:22:13.390Z,21.17
2018-05-31T00:23:12.866Z,21.17
2018-05-31T00:24:13.161Z,21.14
2018-05-31T00:25:13.775Z,21.2
2018-05-31T00:26:13.525Z,21.2
2018-05-31T00:27:12.870Z,21.22
2018-05-31T00:28:13.440Z,21.17
2018-05-31T00:29:13.949Z,21.18
2018-05-31T00:30:13.370Z,21.21
2018-05-31T00:31:13.154Z,21.17
2018-05-31T00:32:13.441Z,21.21
2018-05-31T00:33:13.156Z,21.17
2018-05-31T00:34:13.182Z,21.25
2018-05-31T00:35:13.330Z,21.22
2018-05-31T00:36:12.941Z,21.24
2018-05-31T00:37:13.453Z,21.17
2018-05-31T00:38:13.178Z,21.15
2018-05-31T00:39:13.180Z,21.09
2018-05-31T00:40:13.345Z,21.14
2018-05-31T00:41:13.476Z,21.14
2018-05-31T00:42:13.466Z,21.09
2018-05-31T00:43:13.220Z,21.09
2018-05-31T00:44:13.180Z,21.07
2018-05-31T00:45:13.093Z,21.07
2018-05-31T00:46:13.195Z,21.02
2018-05-31T00:47:12.917Z,21.02
2018-05-31T00:48:13.639Z,21.02
2018-05-31T00:49:13.243Z,20.96
2018-05-31T00:50:13.953Z,20.93
2018-05-31T00:51:13.473Z,20.9
2018-05-31T00:52:12.935Z,20.92
2018-05-31T00:53:13.205Z,20.99
2018-05-31T00:54:13.225Z,21.07
2018-05-31T00:55:13.791Z,21.05
2018-05-31T00:56:13.029Z,21.02
2018-05-31T00:57:14.219Z,21
2018-05-31T00:58:13.505Z,20.96
2018-05-31T00:59:13.516Z,21.02
2018-05-31T01:00:13.207Z,21.09
2018-05-31T01:01:13.311Z,20.99
2018-05-31T01:02:13.512Z,20.97
2018-05-31T01:03:13.233Z,21.03
2018-05-31T01:04:13.233Z,21.02
2018-05-31T01:05:13.753Z,20.99
2018-05-31T01:06:14.067Z,20.96
2018-05-31T01:07:13.529Z,20.99
2018-05-31T01:08:13.256Z,21.03
2018-05-31T01:09:13.507Z,21.02
2018-05-31T01:10:13.434Z,20.99
2018-05-31T01:11:13.092Z,21.02
2018-05-31T01:12:13.511Z,20.99
2018-05-31T01:13:13.544Z,20.95
2018-05-31T01:14:13.526Z,20.92
2018-05-31T01:15:13.829Z,20.95
2018-05-31T01:16:13.105Z,20.9
2018-05-31T01:17:13.267Z,20.95
2018-05-31T01:18:13.551Z,20.88
2018-05-31T01:19:13.549Z,20.85
2018-05-31T01:20:13.389Z,20.88
2018-05-31T01:21:13.396Z,20.93
2018-05-31T01:22:13.285Z,20.85
2018-05-31T01:23:13.299Z,20.87
2018-05-31T01:24:13.309Z,20.85
2018-05-31T01:25:13.509Z,20.85
2018-05-31T01:26:14.424Z,20.67
2018-05-31T01:27:13.028Z,20.78
2018-05-31T01:28:13.293Z,20.69
2018-05-31T01:29:13.308Z,20.66
2018-05-31T01:30:13.831Z,20.77
2018-05-31T01:31:13.300Z,20.74
2018-05-31T01:32:13.307Z,20.72
2018-05-31T01:33:13.322Z,20.7
2018-05-31T01:34:13.062Z,20.77
2018-05-31T01:35:13.520Z,20.75
2018-05-31T01:36:13.038Z,20.69
2018-05-31T01:37:13.308Z,20.69
2018-05-31T01:38:13.317Z,20.7
2018-05-31T01:39:13.313Z,20.72
2018-05-31T01:40:13.242Z,20.8
2018-05-31T01:41:13.386Z,20.74
2018-05-31T01:42:13.603Z,20.78
2018-05-31T01:43:13.794Z,20.85
2018-05-31T01:44:13.607Z,20.85
2018-05-31T01:45:13.278Z,20.82
2018-05-31T01:46:13.334Z,20.77
2018-05-31T01:47:13.352Z,20.81
2018-05-31T01:48:13.084Z,20.69
2018-05-31T01:49:13.339Z,20.62
2018-05-31T01:50:13.786Z,20.63
2018-05-31T01:51:13.078Z,20.58
2018-05-31T01:52:14.675Z,20.55
2018-05-31T01:53:13.111Z,20.52
2018-05-31T01:54:13.357Z,20.44
2018-05-31T01:55:13.587Z,20.52
2018-05-31T01:56:13.395Z,20.51
2018-05-31T01:57:13.628Z,20.47
2018-05-31T01:58:13.089Z,20.55
2018-05-31T01:59:13.388Z,20.39
2018-05-31T02:00:13.550Z,20.5
2018-05-31T02:01:13.972Z,20.43
2018-05-31T02:02:13.094Z,20.5
2018-05-31T02:03:13.098Z,20.43
2018-05-31T02:04:13.645Z,20.5
2018-05-31T02:05:13.993Z,20.58
2018-05-31T02:06:13.677Z,20.63
2018-05-31T02:07:13.647Z,20.63
2018-05-31T02:08:13.437Z,20.52
2018-05-31T02:09:13.653Z,20.52
2018-05-31T02:10:14.403Z,20.34
2018-05-31T02:11:13.200Z,20.36
2018-05-31T02:12:13.125Z,20.34
2018-05-31T02:13:13.390Z,20.21
2018-05-31T02:14:13.678Z,20.18
2018-05-31T02:15:13.287Z,20.21
2018-05-31T02:16:13.140Z,20.13
2018-05-31T02:17:13.410Z,20.16
2018-05-31T02:18:13.680Z,20.04
2018-05-31T02:19:14.179Z,20.02
2018-05-31T02:20:13.921Z,20.02
2018-05-31T02:21:13.706Z,19.94
2018-05-31T02:22:13.427Z,20
2018-05-31T02:23:13.688Z,19.94
2018-05-31T02:24:13.139Z,19.85
2018-05-31T02:25:13.643Z,19.96
2018-05-31T02:26:13.172Z,20.02
2018-05-31T02:27:14.542Z,19.92
2018-05-31T02:28:13.677Z,19.94
2018-05-31T02:29:13.418Z,19.88
2018-05-31T02:30:13.554Z,19.82
2018-05-31T02:31:13.539Z,19.84
2018-05-31T02:32:13.690Z,19.81
2018-05-31T02:33:13.699Z,19.82
2018-05-31T02:34:13.432Z,19.74
2018-05-31T02:35:13.873Z,19.73
2018-05-31T02:36:13.486Z,19.69
2018-05-31T02:37:14.234Z,19.71
2018-05-31T02:38:13.703Z,19.73
2018-05-31T02:39:13.160Z,19.73
2018-05-31T02:40:13.923Z,19.71
2018-05-31T02:41:13.476Z,19.69
2018-05-31T02:42:13.751Z,19.67
2018-05-31T02:43:13.436Z,19.67
2018-05-31T02:44:13.729Z,19.67
2018-05-31T02:45:13.301Z,19.56
2018-05-31T02:46:13.455Z,19.59
2018-05-31T02:47:13.450Z,19.54
2018-05-31T02:48:13.726Z,19.55
2018-05-31T02:49:13.442Z,19.51
2018-05-31T02:50:13.500Z,19.49
2018-05-31T02:51:13.477Z,19.45
2018-05-31T02:52:13.444Z,19.49
2018-05-31T02:53:13.454Z,19.48
2018-05-31T02:54:13.181Z,19.52
2018-05-31T02:55:13.633Z,19.49
2018-05-31T02:56:13.182Z,19.52
2018-05-31T02:57:13.187Z,19.49
2018-05-31T02:58:13.206Z,19.56
2018-05-31T02:59:13.752Z,19.52
2018-05-31T03:00:14.090Z,19.52
2018-05-31T03:01:13.466Z,19.63
2018-05-31T03:02:13.473Z,19.63
2018-05-31T03:03:13.187Z,19.59
2018-05-31T03:04:13.731Z,19.67
2018-05-31T03:05:14.191Z,19.54
2018-05-31T03:06:13.544Z,19.55
2018-05-31T03:07:13.463Z,19.51
2018-05-31T03:08:13.729Z,19.54
2018-05-31T03:09:13.736Z,19.52
2018-05-31T03:10:13.843Z,19.71
2018-05-31T03:11:13.240Z,19.71
2018-05-31T03:12:13.735Z,19.71
2018-05-31T03:13:13.482Z,19.84
2018-05-31T03:14:13.201Z,19.89
2018-05-31T03:15:13.333Z,19.88
2018-05-31T03:16:13.478Z,19.84
2018-05-31T03:17:13.480Z,19.77
2018-05-31T03:18:13.491Z,19.92
2018-05-31T03:19:13.762Z,19.84
2018-05-31T03:20:13.700Z,19.81
2018-05-31T03:21:13.828Z,19.85
2018-05-31T03:22:13.774Z,19.85
2018-05-31T03:23:13.925Z,19.86
2018-05-31T03:24:13.484Z,19.81
2018-05-31T03:25:13.680Z,19.86
2018-05-31T03:26:13.555Z,19.82
2018-05-31T03:27:13.494Z,19.81
2018-05-31T03:28:13.800Z,19.81
2018-05-31T03:29:13.505Z,19.88
2018-05-31T03:30:13.975Z,19.85
2018-05-31T03:31:13.575Z,19.82
2018-05-31T03:32:14.125Z,19.76
2018-05-31T03:33:13.496Z,19.67
2018-05-31T03:34:13.766Z,19.59
2018-05-31T03:35:13.941Z,19.54
2018-05-31T03:36:13.532Z,19.48
2018-05-31T03:37:13.516Z,19.45
2018-05-31T03:38:13.502Z,19.4
2018-05-31T03:39:13.235Z,19.4
2018-05-31T03:40:14.028Z,19.34
2018-05-31T03:41:13.588Z,19.44
2018-05-31T03:42:13.792Z,19.49
2018-05-31T03:43:13.506Z,19.49
2018-05-31T03:44:13.526Z,19.63
2018-05-31T03:45:13.649Z,19.62
2018-05-31T03:46:13.555Z,19.69
2018-05-31T03:47:13.789Z,19.71
2018-05-31T03:48:13.529Z,19.62
2018-05-31T03:49:13.796Z,19.81
2018-05-31T03:50:14.169Z,19.85
2018-05-31T03:51:13.887Z,19.81
2018-05-31T03:52:13.784Z,19.86
2018-05-31T03:53:13.511Z,19.89
2018-05-31T03:54:13.816Z,19.95
2018-05-31T03:55:13.955Z,20
2018-05-31T03:56:13.571Z,20.07
2018-05-31T03:57:13.527Z,20.02
2018-05-31T03:58:13.262Z,20.1
2018-05-31T03:59:14.026Z,20.22
2018-05-31T04:00:13.932Z,20.22
2018-05-31T04:01:13.315Z,20.19
2018-05-31T04:02:13.540Z,20.07
2018-05-31T04:03:13.273Z,20.04
2018-05-31T04:04:13.291Z,19.99
2018-05-31T04:05:14.087Z,20.07
2018-05-31T04:06:13.591Z,20.07
2018-05-31T04:07:13.871Z,20.21
2018-05-31T04:08:14.499Z,20.28
2018-05-31T04:09:13.809Z,20.32
2018-05-31T04:10:13.404Z,20.32
2018-05-31T04:11:13.823Z,20.47
2018-05-31T04:12:13.610Z,20.55
2018-05-31T04:13:13.342Z,20.65
2018-05-31T04:14:13.564Z,20.65
2018-05-31T04:15:13.917Z,20.81
2018-05-31T04:16:13.855Z,20.9
2018-05-31T04:17:13.309Z,21.14
2018-05-31T04:18:13.848Z,21.25
2018-05-31T04:19:13.589Z,21.33
2018-05-31T04:20:13.361Z,21.45
2018-05-31T04:21:13.686Z,21.61
2018-05-31T04:22:13.866Z,21.69
2018-05-31T04:23:13.587Z,21.82
2018-05-31T04:24:13.869Z,22.02
2018-05-31T04:25:13.832Z,22.07
2018-05-31T04:26:13.323Z,22.15
2018-05-31T04:27:13.623Z,22.28
2018-05-31T04:28:13.894Z,22.25
2018-05-31T04:29:13.590Z,22.18
2018-05-31T04:30:13.805Z,22.14
2018-05-31T04:31:13.601Z,22.18
2018-05-31T04:32:13.605Z,22.25
2018-05-31T04:33:14.160Z,22.32
2018-05-31T04:34:13.612Z,22.53
2018-05-31T04:35:14.316Z,22.48
2018-05-31T04:36:13.888Z,22.63
2018-05-31T04:37:13.677Z,22.84
2018-05-31T04:38:13.657Z,22.84
2018-05-31T04:39:13.631Z,22.84
2018-05-31T04:40:13.755Z,22.96
2018-05-31T04:41:14.008Z,22.85
2018-05-31T04:42:13.939Z,22.87
2018-05-31T04:43:13.982Z,22.84
2018-05-31T04:44:13.385Z,22.9
2018-05-31T04:45:13.716Z,22.84
2018-05-31T04:46:13.734Z,22.87
2018-05-31T04:47:13.407Z,22.85
2018-05-31T04:48:13.976Z,22.87
2018-05-31T04:49:13.720Z,22.87
2018-05-31T04:50:13.543Z,22.88
2018-05-31T04:51:14.044Z,22.85
2018-05-31T04:52:14.018Z,23
2018-05-31T04:53:14.664Z,23.12
2018-05-31T04:54:13.444Z,23.18
2018-05-31T04:55:13.471Z,23.13
2018-05-31T04:56:13.981Z,23.15
2018-05-31T04:57:13.463Z,23.24
2018-05-31T04:58:13.726Z,23.2
2018-05-31T04:59:13.467Z,23.23
2018-05-31T05:00:13.567Z,23.2
2018-05-31T05:01:13.763Z,23.2
2018-05-31T05:02:14.538Z,23.09
2018-05-31T05:03:13.745Z,23.03
2018-05-31T05:04:13.751Z,22.99
2018-05-31T05:05:13.623Z,22.85
2018-05-31T05:06:14.026Z,22.81
2018-05-31T05:07:13.777Z,22.62
2018-05-31T05:08:14.069Z,22.65
2018-05-31T05:09:14.048Z,22.66
2018-05-31T05:10:13.994Z,22.8
2018-05-31T05:11:14.297Z,22.9
2018-05-31T05:12:13.807Z,22.81
2018-05-31T05:13:13.535Z,22.81
2018-05-31T05:14:14.075Z,22.8
2018-05-31T05:15:13.815Z,22.69
2018-05-31T05:16:13.846Z,22.55
2018-05-31T05:17:14.075Z,22.47
2018-05-31T05:18:13.808Z,22.33
2018-05-31T05:19:13.991Z,22.28
2018-05-31T05:20:14.910Z,22.23
2018-05-31T05:21:13.548Z,22.36
2018-05-31T05:22:13.830Z,22.59
2018-05-31T05:23:14.107Z,22.62
2018-05-31T05:24:14.092Z,22.66
2018-05-31T05:25:13.895Z,22.65
2018-05-31T05:26:13.866Z,22.55
2018-05-31T05:27:13.632Z,22.53
2018-05-31T05:28:14.392Z,22.57
2018-05-31T05:29:14.568Z,22.68
2018-05-31T05:30:14.100Z,22.9
2018-05-31T05:31:14.229Z,23.06
2018-05-31T05:32:14.155Z,22.96
2018-05-31T05:33:14.086Z,22.96
2018-05-31T05:34:13.875Z,22.99
2018-05-31T05:35:13.688Z,23.02
2018-05-31T05:36:14.208Z,22.91
2018-05-31T05:37:14.487Z,22.84
2018-05-31T05:38:14.732Z,23.13
2018-05-31T05:39:13.908Z,23.47
2018-05-31T05:40:13.999Z,23.5
2018-05-31T05:41:13.938Z,23.4
2018-05-31T05:42:14.188Z,23.28
2018-05-31T05:43:13.649Z,23.12
2018-05-31T05:44:14.177Z,23.21
2018-05-31T05:45:14.178Z,23.15
2018-05-31T05:46:14.492Z,23.12
2018-05-31T05:47:14.201Z,23.2
2018-05-31T05:48:14.194Z,23.43
2018-05-31T05:49:14.203Z,23.37
2018-05-31T05:50:14.204Z,23.51
2018-05-31T05:51:14.303Z,23.51
2018-05-31T05:52:14.226Z,23.5
2018-05-31T05:53:13.960Z,23.51
2018-05-31T05:54:13.958Z,23.44
2018-05-31T05:55:14.467Z,23.5
2018-05-31T05:56:14.315Z,23.5
2018-05-31T05:57:14.226Z,23.63
2018-05-31T05:58:13.973Z,23.92
2018-05-31T05:59:14.278Z,24.43
2018-05-31T06:00:13.732Z,24.85
2018-05-31T06:01:14.288Z,25.23
2018-05-31T06:02:14.047Z,25.6
2018-05-31T06:03:14.014Z,25.84
2018-05-31T06:04:14.511Z,26.05
2018-05-31T06:05:14.276Z,26.37
2018-05-31T06:06:14.320Z,26.6
2018-05-31T06:07:14.282Z,26.84
2018-05-31T06:08:14.286Z,27.1
2018-05-31T06:09:14.291Z,27.44
2018-05-31T06:10:14.315Z,27.9
2018-05-31T06:11:14.100Z,28.23
2018-05-31T06:12:14.041Z,28.42
2018-05-31T06:13:15.543Z,28.38
2018-05-31T06:14:14.064Z,28.6
2018-05-31T06:24:22.929Z,30.57
2018-05-31T06:25:23.200Z,30.92
2018-05-31T06:26:23.498Z,31.24
2018-05-31T06:27:23.217Z,31.27
2018-05-31T06:28:22.971Z,31.28
2018-05-31T06:29:23.473Z,31.1
2018-05-31T06:30:23.244Z,30.91
2018-05-31T06:31:22.976Z,30.9
2018-05-31T06:32:23.481Z,30.77
2018-05-31T06:33:23.250Z,30.55
2018-05-31T06:34:22.974Z,30.39
2018-05-31T06:35:23.247Z,30.24
2018-05-31T06:36:23.248Z,30.28
2018-05-31T06:37:23.340Z,30.39
2018-05-31T06:38:23.283Z,30.72
2018-05-31T06:39:23.280Z,31.09
2018-05-31T06:40:23.014Z,31.51
2018-05-31T06:41:23.288Z,31.8
2018-05-31T06:42:22.771Z,31.85
2018-05-31T06:43:23.322Z,31.84
2018-05-31T06:44:23.052Z,31.76
2018-05-31T06:45:23.342Z,31.77
2018-05-31T06:46:23.345Z,31.54
2018-05-31T06:47:23.079Z,31.33
2018-05-31T06:48:23.371Z,31.14
2018-05-31T06:49:23.096Z,31.17
2018-05-31T06:50:23.361Z,31.21
2018-05-31T06:51:22.847Z,31.1
2018-05-31T06:52:23.123Z,31.07
2018-05-31T06:53:23.128Z,31.17
2018-05-31T06:54:23.177Z,30.94
2018-05-31T06:55:23.605Z,30.99
2018-05-31T06:56:23.441Z,31.09
2018-05-31T06:57:23.423Z,30.88
2018-05-31T06:58:23.187Z,30.62
2018-05-31T06:59:23.442Z,30.62
2018-05-31T07:00:23.184Z,30.68
2018-05-31T07:01:22.931Z,30.8
2018-05-31T07:02:23.217Z,30.91
2018-05-31T07:03:23.223Z,31.21
2018-05-31T07:04:23.485Z,31.36
2018-05-31T07:05:23.240Z,31.58
2018-05-31T07:06:23.266Z,31.85
2018-05-31T07:07:23.247Z,31.89
2018-05-31T07:08:23.514Z,32.09
2018-05-31T07:09:23.526Z,31.97
2018-05-31T07:10:23.526Z,31.85
2018-05-31T07:11:23.296Z,31.7
2018-05-31T07:12:23.302Z,31.56
2018-05-31T07:13:23.046Z,31.59
2018-05-31T07:14:23.062Z,31.58
2018-05-31T07:15:23.567Z,31.62
2018-05-31T07:16:23.339Z,31.85
2018-05-31T07:17:23.334Z,31.9
2018-05-31T07:18:23.418Z,31.76
2018-05-31T07:19:23.629Z,31.39
2018-05-31T07:20:23.622Z,31.24
2018-05-31T07:21:23.424Z,31.2
2018-05-31T07:22:23.376Z,31.36
2018-05-31T07:23:23.645Z,31.58
2018-05-31T07:24:23.419Z,31.71
2018-05-31T07:25:23.672Z,31.89
2018-05-31T07:26:23.691Z,32.04
2018-05-31T07:27:23.739Z,31.96
2018-05-31T07:28:23.699Z,32.04
2018-05-31T07:29:23.199Z,31.93
2018-05-31T07:30:23.734Z,31.74
2018-05-31T07:31:23.460Z,31.42
2018-05-31T07:32:23.731Z,30.84
2018-05-31T07:33:23.243Z,30.55
2018-05-31T07:34:23.225Z,30.48
2018-05-31T07:35:23.779Z,30.39
2018-05-31T07:36:23.873Z,30.35
2018-05-31T07:37:23.524Z,30.21
2018-05-31T07:38:23.535Z,30.31
2018-05-31T07:39:23.797Z,30.47
2018-05-31T07:40:23.800Z,30.47
2018-05-31T07:41:23.813Z,30.53
2018-05-31T07:42:23.826Z,30.57
2018-05-31T07:43:23.830Z,30.9
2018-05-31T07:44:24.013Z,31.1
2018-05-31T07:45:23.846Z,31.49
2018-05-31T07:46:23.590Z,31.71
2018-05-31T07:47:23.617Z,31.7
2018-05-31T07:48:23.880Z,31.84
2018-05-31T07:49:23.885Z,31.89
2018-05-31T07:50:23.625Z,32.04
2018-05-31T07:51:23.649Z,32.29
2018-05-31T07:52:23.920Z,32.31
2018-05-31T07:53:23.663Z,32.33
2018-05-31T07:54:23.958Z,31.93
2018-05-31T07:55:23.676Z,31.61
2018-05-31T07:56:23.680Z,31.7
2018-05-31T07:57:23.687Z,31.87
2018-05-31T07:58:23.458Z,32.11
2018-05-31T07:59:24.760Z,32.56
2018-05-31T08:00:23.724Z,32.93
2018-05-31T08:01:24.004Z,33.24
2018-05-31T08:02:23.753Z,33.53
2018-05-31T08:03:23.758Z,33.43
2018-05-31T08:04:24.027Z,33.37
2018-05-31T08:05:23.768Z,33.58
2018-05-31T08:06:23.525Z,33.71
2018-05-31T08:07:23.787Z,33.8
2018-05-31T08:08:23.800Z,33.81
2018-05-31T08:09:24.070Z,33.86
2018-05-31T08:10:24.080Z,33.73
2018-05-31T08:11:24.261Z,33.24
2018-05-31T08:12:23.848Z,32.75
2018-05-31T08:13:24.103Z,32.12
2018-05-31T08:14:23.909Z,31.69
2018-05-31T08:15:24.129Z,31.54
2018-05-31T08:16:24.171Z,31.47
2018-05-31T08:17:24.148Z,31.85
2018-05-31T08:18:24.183Z,31.94
2018-05-31T08:19:23.936Z,32.08
2018-05-31T08:20:24.182Z,32.49
2018-05-31T08:21:23.666Z,32.6
2018-05-31T08:22:23.964Z,32.53
2018-05-31T08:23:23.970Z,32.7
2018-05-31T08:24:23.969Z,33.02
2018-05-31T08:25:23.709Z,33.31
2018-05-31T08:26:23.716Z,33.4
2018-05-31T08:27:23.983Z,33.73
2018-05-31T08:28:23.753Z,34.03
2018-05-31T08:29:24.154Z,34.1
2018-05-31T08:30:24.013Z,34.17
2018-05-31T08:31:24.540Z,34.1
2018-05-31T08:32:24.288Z,34.1
2018-05-31T08:33:24.292Z,34.06
2018-05-31T08:34:24.052Z,34.18
2018-05-31T08:35:24.054Z,33.96
2018-05-31T08:36:24.130Z,33.96
2018-05-31T08:37:24.076Z,33.94
2018-05-31T08:38:24.353Z,34.18
2018-05-31T08:39:24.377Z,34.02
2018-05-31T08:40:24.136Z,33.67
2018-05-31T08:41:24.124Z,33.52
2018-05-31T08:42:24.396Z,33.39
2018-05-31T08:43:24.197Z,33.34
2018-05-31T08:44:24.416Z,33.31
2018-05-31T08:45:24.167Z,33.46
2018-05-31T08:46:24.226Z,33.65
2018-05-31T08:47:24.483Z,33.69
2018-05-31T08:48:23.949Z,33.65
2018-05-31T08:49:24.465Z,33.45
2018-05-31T08:50:23.953Z,33.22
2018-05-31T08:51:24.529Z,33.17
2018-05-31T08:52:24.505Z,33.02
2018-05-31T08:53:24.284Z,32.74
2018-05-31T08:54:24.001Z,32.26
2018-05-31T08:55:24.272Z,31.69
2018-05-31T08:56:24.273Z,31.06
2018-05-31T08:57:24.692Z,30.62
2018-05-31T08:58:24.292Z,30.28
2018-05-31T08:59:24.310Z,29.78
2018-05-31T09:00:24.591Z,29.72
2018-05-31T09:01:24.060Z,29.49
2018-05-31T09:02:24.333Z,29.49
2018-05-31T09:03:24.331Z,29.44
2018-05-31T09:04:24.617Z,29.08
2018-05-31T09:05:24.403Z,28.96
2018-05-31T09:06:24.358Z,28.89
2018-05-31T09:07:24.644Z,28.93
2018-05-31T09:08:24.141Z,29.04
2018-05-31T09:09:24.820Z,29.04
2018-05-31T09:10:24.140Z,29.14
2018-05-31T09:11:24.401Z,29.26
2018-05-31T09:12:24.417Z,29.47
2018-05-31T09:13:24.446Z,29.63
2018-05-31T09:14:24.441Z,29.75
2018-05-31T09:15:24.433Z,29.79
2018-05-31T09:16:24.461Z,29.63
2018-05-31T09:17:24.216Z,29.44
2018-05-31T09:18:24.726Z,29.35
2018-05-31T09:19:25.562Z,29.23
2018-05-31T09:20:24.219Z,29.17
2018-05-31T09:21:24.480Z,28.94
2018-05-31T09:22:24.753Z,28.72
2018-05-31T09:23:24.521Z,28.67
2018-05-31T09:24:24.239Z,28.75
2018-05-31T09:25:24.524Z,28.79
2018-05-31T09:26:24.529Z,28.88
2018-05-31T09:27:24.521Z,28.96
2018-05-31T09:28:24.548Z,28.89
2018-05-31T09:29:24.539Z,28.69
2018-05-31T09:30:24.807Z,28.67
2018-05-31T09:31:24.299Z,28.56
2018-05-31T09:32:24.555Z,28.52
2018-05-31T09:33:24.831Z,28.47
2018-05-31T09:34:24.834Z,28.26
2018-05-31T09:35:24.832Z,28.3
2018-05-31T09:36:24.583Z,28.17
2018-05-31T09:37:24.592Z,28.11
2018-05-31T09:38:24.616Z,28.07
2018-05-31T09:39:24.611Z,27.85
2018-05-31T09:40:24.608Z,27.82
2018-05-31T09:41:24.652Z,28.07
2018-05-31T09:42:24.613Z,28.3
2018-05-31T09:43:24.675Z,28.39
2018-05-31T09:44:24.382Z,28.54
2018-05-31T09:45:24.904Z,28.72
2018-05-31T09:46:24.902Z,28.91
2018-05-31T09:47:24.659Z,28.72
2018-05-31T09:48:24.936Z,28.63
2018-05-31T09:49:24.667Z,28.45
2018-05-31T09:50:24.420Z,28.44
2018-05-31T09:51:24.672Z,28.42
2018-05-31T09:52:24.947Z,28.3
2018-05-31T09:53:24.953Z,28.35
2018-05-31T09:54:24.437Z,28.35
2018-05-31T09:55:24.954Z,28.56
2018-05-31T09:56:24.983Z,28.81
2018-05-31T09:57:24.711Z,28.79
2018-05-31T09:58:24.743Z,28.85
2018-05-31T09:59:25.005Z,28.98
2018-05-31T10:00:25.615Z,29.04
2018-05-31T10:01:24.745Z,29.05
2018-05-31T10:02:24.480Z,29.26
2018-05-31T10:03:25.018Z,29.31
2018-05-31T10:04:25.027Z,29.29
2018-05-31T10:05:24.768Z,29.24
2018-05-31T10:06:24.780Z,29.22
2018-05-31T10:07:25.059Z,29.29
2018-05-31T10:08:24.806Z,29.16
2018-05-31T10:09:24.790Z,29.1
2018-05-31T10:10:24.799Z,28.97
2018-05-31T10:11:25.050Z,28.91
2018-05-31T10:12:25.055Z,28.89
2018-05-31T10:13:24.819Z,28.82
2018-05-31T10:14:25.068Z,28.84
2018-05-31T10:15:24.868Z,28.75
2018-05-31T10:16:25.098Z,28.76
2018-05-31T10:17:24.834Z,28.81
2018-05-31T10:18:24.849Z,28.94
2018-05-31T10:19:25.114Z,28.96
2018-05-31T10:20:24.868Z,28.88
2018-05-31T10:21:25.111Z,28.78
2018-05-31T10:22:24.597Z,28.64
2018-05-31T10:53:42.071Z,28.54
2018-05-31T10:54:41.474Z,28.57
2018-05-31T10:55:42.003Z,28.57
2018-05-31T10:56:41.735Z,28.54
2018-05-31T10:57:41.750Z,28.63
2018-05-31T10:58:41.491Z,28.64
2018-05-31T10:59:41.760Z,28.63
2018-05-31T11:00:42.006Z,28.72
2018-05-31T11:01:41.787Z,28.74
2018-05-31T11:02:42.047Z,28.89
2018-05-31T11:03:41.773Z,29.04
2018-05-31T11:04:41.499Z,29.27
2018-05-31T11:05:42.046Z,29.36
2018-05-31T11:06:42.045Z,29.42
2018-05-31T11:07:41.802Z,29.44
2018-05-31T11:08:42.167Z,29.57
2018-05-31T11:09:41.544Z,29.66
2018-05-31T11:10:43.406Z,29.73
2018-05-31T11:11:41.558Z,29.63
2018-05-31T11:12:42.073Z,29.47
2018-05-31T11:13:42.083Z,29.34
2018-05-31T11:14:42.079Z,29.24
2018-05-31T11:15:42.080Z,29.27
2018-05-31T11:16:42.089Z,29.29
2018-05-31T11:17:41.852Z,29.31
2018-05-31T11:18:41.601Z,29.22
2018-05-31T11:19:41.857Z,29.34
2018-05-31T11:20:42.116Z,29.32
2018-05-31T11:21:41.912Z,29.31
2018-05-31T11:22:41.881Z,29.24
2018-05-31T11:23:41.872Z,29.22
2018-05-31T11:24:41.621Z,29.26
2018-05-31T11:25:41.889Z,29.23
2018-05-31T11:26:41.903Z,29.38
2018-05-31T11:27:42.206Z,29.45
2018-05-31T11:28:41.979Z,29.53
2018-05-31T11:29:42.238Z,29.71
2018-05-31T11:30:41.648Z,29.9
2018-05-31T11:31:41.922Z,29.84
2018-05-31T11:32:42.190Z,29.75
2018-05-31T11:33:41.928Z,29.56
2018-05-31T11:34:42.073Z,29.44
2018-05-31T11:35:42.317Z,29.38
2018-05-31T11:36:42.208Z,29.38
2018-05-31T11:37:42.231Z,29.47
2018-05-31T11:38:41.971Z,29.51
2018-05-31T11:39:41.965Z,29.5
2018-05-31T11:40:42.863Z,29.49
2018-05-31T11:41:42.234Z,29.63
2018-05-31T11:42:42.253Z,29.79
2018-05-31T11:43:42.056Z,29.98
2018-05-31T11:44:42.261Z,30.1
2018-05-31T11:45:42.629Z,30.28
2018-05-31T11:46:41.746Z,30.5
2018-05-31T11:47:42.315Z,30.63
2018-05-31T11:48:42.023Z,30.69
2018-05-31T11:49:42.052Z,30.85
2018-05-31T11:50:42.042Z,30.94
2018-05-31T11:51:41.781Z,30.92
2018-05-31T11:52:42.122Z,31.03
2018-05-31T11:53:41.894Z,31.12
2018-05-31T11:54:42.344Z,31.07
2018-05-31T11:55:42.079Z,31.07
2018-05-31T11:56:42.080Z,31.17
2018-05-31T11:57:42.073Z,31.22
2018-05-31T11:58:42.096Z,31.22
2018-05-31T11:59:41.835Z,31.1
2018-05-31T12:00:42.383Z,31.14
2018-05-31T12:01:42.219Z,31.17
2018-05-31T12:02:42.120Z,31.21
2018-05-31T12:03:42.466Z,31.17
2018-05-31T12:04:42.387Z,31.18
2018-05-31T12:05:42.152Z,31.21
2018-05-31T12:06:42.137Z,31.33
2018-05-31T12:07:42.415Z,31.39
2018-05-31T12:08:43.035Z,31.44
2018-05-31T12:09:42.243Z,31.39
2018-05-31T12:10:42.249Z,31.37
2018-05-31T12:11:42.290Z,31.31
2018-05-31T12:12:42.257Z,31.31
2018-05-31T12:13:42.243Z,31.31
2018-05-31T12:14:42.464Z,31.29
2018-05-31T12:15:41.942Z,31.1
2018-05-31T12:16:42.472Z,30.99
2018-05-31T12:17:42.533Z,30.83
2018-05-31T12:18:42.224Z,30.87
2018-05-31T12:19:42.229Z,30.87
2018-05-31T12:20:42.242Z,30.92
2018-05-31T12:21:42.493Z,30.92
2018-05-31T12:22:42.277Z,30.83
2018-05-31T12:23:41.999Z,30.77
2018-05-31T12:24:42.286Z,30.78
2018-05-31T12:25:42.291Z,30.69
2018-05-31T12:26:42.036Z,30.73
2018-05-31T12:27:42.546Z,30.62
2018-05-31T12:28:42.288Z,30.39
2018-05-31T12:29:42.039Z,30.31
2018-05-31T12:30:42.296Z,30.3
2018-05-31T12:31:42.341Z,30.27
2018-05-31T12:32:42.595Z,30.28
2018-05-31T12:33:42.605Z,30.34
2018-05-31T12:34:42.607Z,30.43
2018-05-31T12:35:42.625Z,30.43
2018-05-31T12:36:42.346Z,30.65
2018-05-31T12:37:42.159Z,30.78
2018-05-31T12:38:42.362Z,30.92
2018-05-31T12:39:42.364Z,31.07
2018-05-31T12:40:42.839Z,30.92
2018-05-31T12:41:42.661Z,30.87
2018-05-31T12:42:42.667Z,30.68
2018-05-31T12:43:42.404Z,30.62
2018-05-31T12:44:42.402Z,30.37
2018-05-31T12:45:42.663Z,30.32
2018-05-31T12:46:42.407Z,30.3
2018-05-31T12:47:42.679Z,30.28
2018-05-31T12:48:42.164Z,30.24
2018-05-31T12:49:42.703Z,30.16
2018-05-31T12:50:42.437Z,30.02
2018-05-31T12:51:42.437Z,29.76
2018-05-31T12:52:42.700Z,29.49
2018-05-31T12:53:42.852Z,29.32
2018-05-31T12:54:42.731Z,29.14
2018-05-31T12:55:42.468Z,29.13
2018-05-31T12:56:42.736Z,29.1
2018-05-31T12:57:42.739Z,29.14
2018-05-31T12:58:42.774Z,29.16
2018-05-31T12:59:42.748Z,29.13
2018-05-31T13:00:42.506Z,29.12
2018-05-31T13:01:42.515Z,29.16
2018-05-31T13:02:42.518Z,29.24
2018-05-31T13:03:42.773Z,29.29
2018-05-31T13:04:42.524Z,29.49
2018-05-31T13:05:42.649Z,29.63
2018-05-31T13:06:42.821Z,29.72
2018-05-31T13:07:42.796Z,29.69
2018-05-31T13:08:42.542Z,29.63
2018-05-31T13:09:42.566Z,29.45
2018-05-31T13:10:42.831Z,29.49
2018-05-31T13:11:42.551Z,29.65
2018-05-31T13:12:42.579Z,29.68
2018-05-31T13:13:44.289Z,29.57
2018-05-31T13:14:42.582Z,29.65
2018-05-31T13:15:42.330Z,29.63
2018-05-31T13:16:42.586Z,29.68
2018-05-31T13:17:42.330Z,29.72
2018-05-31T13:18:42.871Z,29.75
2018-05-31T13:19:42.866Z,29.71
2018-05-31T13:20:43.022Z,29.59
2018-05-31T13:21:42.870Z,29.59
2018-05-31T13:22:42.620Z,29.47
2018-05-31T13:23:42.366Z,29.59
2018-05-31T13:24:42.457Z,29.6
2018-05-31T13:25:42.640Z,29.72
2018-05-31T13:26:42.906Z,29.61
2018-05-31T13:27:42.676Z,29.6
2018-05-31T13:28:42.395Z,29.49
2018-05-31T13:29:42.401Z,29.53
2018-05-31T13:30:42.941Z,29.61
2018-05-31T13:31:42.438Z,29.68
2018-05-31T13:32:42.681Z,29.72
2018-05-31T13:33:42.730Z,29.72
2018-05-31T13:34:42.959Z,29.95